PDT,Max TemperatureF,Mean TemperatureF,Min TemperatureF,Max Dew PointF,MeanDew PointF,Min DewpointF,Max Humidity, Mean Humidity, Min Humidity, Max Sea Level PressureIn, Mean Sea Level PressureIn, Min Sea Level PressureIn, Max VisibilityMiles, Mean VisibilityMiles, Min VisibilityMiles, Max Wind SpeedMPH, Mean Wind SpeedMPH, Max Gust SpeedMPH,PrecipitationIn, CloudCover, Events, WindDirDegrees
2013-5-1,55,44,33,46,39,34,100,79,54,30.52,30.48,30.44,10,9,4,21,7,28,0.00,0,,22
2013-5-2,62,52,42,48,41,34,93,65,36,30.43,30.37,30.31,10,9,7,21,10,32,0.00,0,,14
2013-5-3,59,48,37,50,44,36,100,83,63,30.34,30.27,30.16,10,8,5,23,8,31,0.00,0,,355
2013-5-4,82,62,41,46,40,34,100,49,17,30.16,30.00,29.88,10,10,7,18,6,32,0.00,0,,48
2013-5-5,86,68,50,48,40,34,94,46,19,29.89,29.80,29.70,10,9,4,26,10,34,0.00,1,,92
2013-5-6,59,52,44,52,48,45,100,84,72,30.01,29.93,29.88,10,9,5,15,6,23,0.00,3,,199
2013-5-7,55,52,50,50,48,46,94,88,77,30.11,30.05,29.99,10,9,5,15,10,22,0.00,8,,207
2013-5-8,55,52,50,50,48,46,94,86,77,30.23,30.17,30.11,10,9,5,12,6,,0.00,8,,258
2013-5-9,55,50,44,50,48,43,100,88,77,30.24,30.21,30.17,10,10,10,18,8,25,0.00,4,,344
2013-5-10,53,48,44,50,49,43,100,93,88,30.29,30.26,30.22,10,8,2,8,2,,0.00,8,,254
2013-5-11,64,55,46,54,49,45,100,84,63,30.29,30.18,30.11,10,9,4,7,3,,0.00,2,Rain,255
2013-5-12,60,56,53,54,53,48,100,89,77,30.20,30.16,30.13,10,8,1,17,9,23,0.04,7,Rain,194
2013-5-13,55,50,44,54,52,45,100,98,88,30.27,30.18,30.11,7,3,1,21,11,28,0.01,7,Rain,198
2013-5-14,57,50,42,52,46,43,100,86,67,30.27,30.23,30.18,10,7,0,14,4,18,0.00,2,Fog,360
2013-5-15,57,50,42,52,48,43,100,90,72,30.18,30.12,30.05,10,10,5,18,3,25,0.06,7,Rain,181
2013-5-16,55,52,50,52,51,48,100,93,82,30.05,30.02,29.98,10,8,2,17,7,24,0.09,8,Rain,186
2013-5-17,59,52,44,52,48,45,100,87,72,30.15,30.09,30.04,10,9,2,12,4,,0.04,3,Rain,209
2013-5-18,55,52,48,54,50,46,100,93,82,30.34,30.21,30.14,10,6,1,21,7,30,0.13,8,Rain,183
2013-5-19,57,50,42,52,48,41,100,84,67,30.47,30.43,30.34,10,9,3,25,13,30,0.00,5,Rain,350
2013-5-20,55,48,41,48,45,41,100,85,72,30.40,30.21,30.02,10,9,7,21,6,24,0.00,3,Rain,341
2013-5-21,50,46,42,46,44,37,100,91,71,30.06,30.00,29.93,10,6,2,18,6,28,0.55,8,Rain,307
2013-5-22,50,46,42,48,45,41,100,94,87,30.05,30.02,29.99,7,4,2,15,10,24,1.14,8,Rain,222
2013-5-23,53,50,46,50,47,46,100,94,82,30.07,30.05,30.02,10,5,2,20,11,29,0.60,8,Rain,203
2013-5-24,53,50,46,50,47,45,100,92,82,30.15,30.11,30.04,10,5,2,20,9,23,0.10,8,Rain,211
2013-5-25,55,50,46,50,48,45,100,88,72,30.13,30.07,29.98,10,10,3,15,4,17,0.09,6,Rain,183
2013-5-26,59,54,50,52,50,48,100,92,72,30.11,30.06,29.98,10,8,1,20,11,28,0.05,8,Rain,196
2013-5-27,53,52,51,54,52,50,100,97,94,30.01,29.86,29.78,10,5,1,29,15,41,0.41,8,Rain,189
2013-5-28,57,54,50,52,50,46,100,90,72,30.01,29.93,29.76,10,8,2,17,11,23,0.19,8,Rain,194
2013-5-29,55,52,48,54,50,46,100,91,82,30.13,29.92,29.67,10,7,2,32,13,43,0.25,8,Rain,227
2013-5-30,57,50,44,52,48,43,100,87,63,30.31,30.21,30.12,10,9,4,15,5,,0.09,7,Rain,187
2013-5-31,59,50,42,52,48,43,100,88,72,30.37,30.33,30.29,10,8,0,20,6,24,0.00,2,Fog,14